sensor_id;sensor_type;location;lat;lon;timestamp;pressure;altitude;pressure_sealevel;temperature;humidity
68873;BME280;55907;50.806;12.882;2023-12-14T00:00:01;961.5;;;6.5;95.8
68873;BME280;55907;50.806;12.882;2023-12-14T00:03:02;961.6;;;6.4;96.3
68873;BME280;55907;50.806;12.882;2023-12-14T00:06:03;961.7;;;6.4;96.0
68873;BME280;55907;50.806;12.882;2023-12-14T00:09:04;961.7;;;6.3;96.0
68873;BME280;55907;50.806;12.882;2023-12-14T00:12:05;961.7;;;6.3;96.2
68873;BME280;55907;50.806;12.882;2023-12-14T00:15:06;961.7;;;6.2;96.2
68873;BME280;55907;50.806;12.882;2023-12-14T00:18:06;961.8;;;6.2;96.1
68873;BME280;55907;50.806;12.882;2023-12-14T00:21:07;961.8;;;6.2;96.5
68873;BME280;55907;50.806;12.882;2023-12-14T00:24:08;961.8;;;6.2;96.4
68873;BME280;55907;50.806;12.882;2023-12-14T00:27:08;961.8;;;6.2;96.4
68873;BME280;55907;50.806;12.882;2023-12-14T00:30:10;961.9;;;6.3;96.4
68873;BME280;55907;50.806;12.882;2023-12-14T00:33:10;961.9;;;6.3;96.3
68873;BME280;55907;50.806;12.882;2023-12-14T00:36:17;961.9;;;6.4;96.0
68873;BME280;55907;50.806;12.882;2023-12-14T00:39:12;961.9;;;6.4;95.6
68873;BME280;55907;50.806;12.882;2023-12-14T00:42:12;962.0;;;6.5;95.1
68873;BME280;55907;50.806;12.882;2023-12-14T00:45:13;962.1;;;6.6;94.9
68873;BME280;55907;50.806;12.882;2023-12-14T00:48:14;962.1;;;6.6;95.1
68873;BME280;55907;50.806;12.882;2023-12-14T00:51:15;962.2;;;6.6;95.1
68873;BME280;55907;50.806;12.882;2023-12-14T00:54:15;962.2;;;6.6;94.8
68873;BME280;55907;50.806;12.882;2023-12-14T00:57:16;962.2;;;6.7;94.9
68873;BME280;55907;50.806;12.882;2023-12-14T01:00:18;962.3;;;6.7;94.3
68873;BME280;55907;50.806;12.882;2023-12-14T01:03:18;962.3;;;6.7;94.3
68873;BME280;55907;50.806;12.882;2023-12-14T01:06:19;962.4;;;6.7;94.1
68873;BME280;55907;50.806;12.882;2023-12-14T01:09:19;962.4;;;6.7;94.2
68873;BME280;55907;50.806;12.882;2023-12-14T01:12:20;962.4;;;6.7;95.1
68873;BME280;55907;50.806;12.882;2023-12-14T01:15:21;962.4;;;6.7;94.6
68873;BME280;55907;50.806;12.882;2023-12-14T01:18:22;962.5;;;6.6;94.2
68873;BME280;55907;50.806;12.882;2023-12-14T01:21:23;962.5;;;6.6;94.9
68873;BME280;55907;50.806;12.882;2023-12-14T01:24:23;962.5;;;6.5;96.0
68873;BME280;55907;50.806;12.882;2023-12-14T01:27:24;962.6;;;6.4;96.0
68873;BME280;55907;50.806;12.882;2023-12-14T01:30:25;962.6;;;6.4;96.5
68873;BME280;55907;50.806;12.882;2023-12-14T01:33:26;962.6;;;6.4;96.7
68873;BME280;55907;50.806;12.882;2023-12-14T01:36:27;962.6;;;6.4;96.8
68873;BME280;55907;50.806;12.882;2023-12-14T01:39:27;962.6;;;6.4;96.9
68873;BME280;55907;50.806;12.882;2023-12-14T01:45:29;962.8;;;6.4;96.6
68873;BME280;55907;50.806;12.882;2023-12-14T01:48:30;962.8;;;6.3;97.4
68873;BME280;55907;50.806;12.882;2023-12-14T01:51:31;962.8;;;6.3;98.5
68873;BME280;55907;50.806;12.882;2023-12-14T01:54:32;962.9;;;6.2;99.6
68873;BME280;55907;50.806;12.882;2023-12-14T01:57:32;962.9;;;6.2;99.2
68873;BME280;55907;50.806;12.882;2023-12-14T02:06:35;963.0;;;6.2;100.0
68873;BME280;55907;50.806;12.882;2023-12-14T02:12:36;963.0;;;6.3;100.0
68873;BME280;55907;50.806;12.882;2023-12-14T02:15:37;963.1;;;6.3;100.0
68873;BME280;55907;50.806;12.882;2023-12-14T02:18:38;963.1;;;6.3;100.0
68873;BME280;55907;50.806;12.882;2023-12-14T02:21:39;963.1;;;6.4;100.0
68873;BME280;55907;50.806;12.882;2023-12-14T02:27:40;963.2;;;6.4;100.0
68873;BME280;55907;50.806;12.882;2023-12-14T02:30:41;963.2;;;6.4;100.0
68873;BME280;55907;50.806;12.882;2023-12-14T02:33:42;963.2;;;6.5;100.0
68873;BME280;55907;50.806;12.882;2023-12-14T02:36:43;963.2;;;6.5;100.0
68873;BME280;55907;50.806;12.882;2023-12-14T02:39:43;963.3;;;6.5;100.0
68873;BME280;55907;50.806;12.882;2023-12-14T02:42:44;963.3;;;6.6;100.0
68873;BME280;55907;50.806;12.882;2023-12-14T02:45:45;963.3;;;6.6;100.0
68873;BME280;55907;50.806;12.882;2023-12-14T02:48:46;963.4;;;6.6;100.0
68873;BME280;55907;50.806;12.882;2023-12-14T02:51:47;963.4;;;6.6;100.0
68873;BME280;55907;50.806;12.882;2023-12-14T02:54:48;963.5;;;6.6;100.0
68873;BME280;55907;50.806;12.882;2023-12-14T02:57:48;963.5;;;6.6;100.0
68873;BME280;55907;50.806;12.882;2023-12-14T03:00:49;963.5;;;6.6;100.0
68873;BME280;55907;50.806;12.882;2023-12-14T03:03:50;963.5;;;6.6;100.0
68873;BME280;55907;50.806;12.882;2023-12-14T03:06:51;963.5;;;6.6;100.0
68873;BME280;55907;50.806;12.882;2023-12-14T03:09:51;963.6;;;6.6;100.0
68873;BME280;55907;50.806;12.882;2023-12-14T03:12:52;963.6;;;6.6;100.0
68873;BME280;55907;50.806;12.882;2023-12-14T03:15:53;963.6;;;6.6;100.0
68873;BME280;55907;50.806;12.882;2023-12-14T03:18:54;963.7;;;6.6;100.0
68873;BME280;55907;50.806;12.882;2023-12-14T03:21:55;963.7;;;6.6;100.0
68873;BME280;55907;50.806;12.882;2023-12-14T03:24:55;963.7;;;6.6;100.0
68873;BME280;55907;50.806;12.882;2023-12-14T03:27:56;963.8;;;6.6;100.0
68873;BME280;55907;50.806;12.882;2023-12-14T03:30:57;963.8;;;6.6;100.0
68873;BME280;55907;50.806;12.882;2023-12-14T03:33:58;963.9;;;6.6;100.0
68873;BME280;55907;50.806;12.882;2023-12-14T03:36:59;963.9;;;6.6;100.0
68873;BME280;55907;50.806;12.882;2023-12-14T03:39:59;963.9;;;6.6;100.0
68873;BME280;55907;50.806;12.882;2023-12-14T03:43:00;963.9;;;6.6;100.0
68873;BME280;55907;50.806;12.882;2023-12-14T03:46:01;964.0;;;6.6;100.0
68873;BME280;55907;50.806;12.882;2023-12-14T03:49:02;964.1;;;6.7;100.0
68873;BME280;55907;50.806;12.882;2023-12-14T03:52:03;964.1;;;6.7;100.0
68873;BME280;55907;50.806;12.882;2023-12-14T03:55:04;964.2;;;6.7;100.0
68873;BME280;55907;50.806;12.882;2023-12-14T03:58:04;964.2;;;6.7;100.0
68873;BME280;55907;50.806;12.882;2023-12-14T04:04:06;964.3;;;6.7;100.0
68873;BME280;55907;50.806;12.882;2023-12-14T04:07:06;964.4;;;6.7;100.0
68873;BME280;55907;50.806;12.882;2023-12-14T04:10:08;964.4;;;6.6;100.0
68873;BME280;55907;50.806;12.882;2023-12-14T04:13:08;964.4;;;6.6;100.0
68873;BME280;55907;50.806;12.882;2023-12-14T04:16:09;964.5;;;6.6;100.0
68873;BME280;55907;50.806;12.882;2023-12-14T04:19:10;964.4;;;6.6;100.0
68873;BME280;55907;50.806;12.882;2023-12-14T04:22:10;964.5;;;6.6;100.0
68873;BME280;55907;50.806;12.882;2023-12-14T04:25:11;964.5;;;6.6;100.0
68873;BME280;55907;50.806;12.882;2023-12-14T04:28:12;964.6;;;6.5;100.0
68873;BME280;55907;50.806;12.882;2023-12-14T04:31:13;964.7;;;6.5;100.0
68873;BME280;55907;50.806;12.882;2023-12-14T04:34:14;964.7;;;6.5;100.0
68873;BME280;55907;50.806;12.882;2023-12-14T04:37:14;964.8;;;6.5;100.0
68873;BME280;55907;50.806;12.882;2023-12-14T04:40:15;964.8;;;6.5;100.0
68873;BME280;55907;50.806;12.882;2023-12-14T04:43:16;964.9;;;6.5;100.0
68873;BME280;55907;50.806;12.882;2023-12-14T04:46:17;964.9;;;6.5;100.0
68873;BME280;55907;50.806;12.882;2023-12-14T04:49:18;965.0;;;6.6;100.0
68873;BME280;55907;50.806;12.882;2023-12-14T04:52:18;965.0;;;6.5;100.0
68873;BME280;55907;50.806;12.882;2023-12-14T04:55:19;965.0;;;6.6;100.0
68873;BME280;55907;50.806;12.882;2023-12-14T04:58:20;965.1;;;6.5;100.0
68873;BME280;55907;50.806;12.882;2023-12-14T05:01:21;965.1;;;6.5;100.0
68873;BME280;55907;50.806;12.882;2023-12-14T05:04:21;965.2;;;6.5;100.0
68873;BME280;55907;50.806;12.882;2023-12-14T05:07:22;965.2;;;6.5;100.0
68873;BME280;55907;50.806;12.882;2023-12-14T05:10:23;965.3;;;6.5;100.0
68873;BME280;55907;50.806;12.882;2023-12-14T05:13:24;965.3;;;6.5;100.0
68873;BME280;55907;50.806;12.882;2023-12-14T05:16:24;965.3;;;6.5;100.0
68873;BME280;55907;50.806;12.882;2023-12-14T05:19:25;965.4;;;6.4;100.0
68873;BME280;55907;50.806;12.882;2023-12-14T05:22:26;965.5;;;6.4;100.0
68873;BME280;55907;50.806;12.882;2023-12-14T05:25:27;965.5;;;6.4;100.0
68873;BME280;55907;50.806;12.882;2023-12-14T05:28:28;965.6;;;6.3;100.0
68873;BME280;55907;50.806;12.882;2023-12-14T05:31:28;965.6;;;6.3;100.0
68873;BME280;55907;50.806;12.882;2023-12-14T05:34:29;965.7;;;6.3;100.0
68873;BME280;55907;50.806;12.882;2023-12-14T05:37:30;965.7;;;6.3;100.0
68873;BME280;55907;50.806;12.882;2023-12-14T05:40:31;965.8;;;6.3;100.0
68873;BME280;55907;50.806;12.882;2023-12-14T05:43:32;965.8;;;6.3;100.0
68873;BME280;55907;50.806;12.882;2023-12-14T05:46:32;965.9;;;6.3;100.0
68873;BME280;55907;50.806;12.882;2023-12-14T05:49:33;966.0;;;6.3;100.0
68873;BME280;55907;50.806;12.882;2023-12-14T05:55:35;966.1;;;6.3;100.0
68873;BME280;55907;50.806;12.882;2023-12-14T05:58:36;966.1;;;6.2;100.0
68873;BME280;55907;50.806;12.882;2023-12-14T06:01:36;966.1;;;6.3;100.0
68873;BME280;55907;50.806;12.882;2023-12-14T06:04:37;966.2;;;6.3;100.0
68873;BME280;55907;50.806;12.882;2023-12-14T06:07:38;966.2;;;6.4;100.0
68873;BME280;55907;50.806;12.882;2023-12-14T06:10:39;966.3;;;6.4;100.0
68873;BME280;55907;50.806;12.882;2023-12-14T06:13:40;966.3;;;6.3;100.0
68873;BME280;55907;50.806;12.882;2023-12-14T06:16:40;966.4;;;6.2;100.0
68873;BME280;55907;50.806;12.882;2023-12-14T06:19:41;966.5;;;6.2;100.0
68873;BME280;55907;50.806;12.882;2023-12-14T06:22:42;966.5;;;6.2;100.0
68873;BME280;55907;50.806;12.882;2023-12-14T06:25:43;966.6;;;6.2;100.0
68873;BME280;55907;50.806;12.882;2023-12-14T06:28:43;966.6;;;6.2;100.0
68873;BME280;55907;50.806;12.882;2023-12-14T06:31:45;966.7;;;6.1;100.0
68873;BME280;55907;50.806;12.882;2023-12-14T06:34:45;966.7;;;6.1;100.0
68873;BME280;55907;50.806;12.882;2023-12-14T06:37:46;966.7;;;6.1;100.0
68873;BME280;55907;50.806;12.882;2023-12-14T06:40:47;966.7;;;6.1;100.0
68873;BME280;55907;50.806;12.882;2023-12-14T06:43:48;966.8;;;6.1;100.0
68873;BME280;55907;50.806;12.882;2023-12-14T06:46:48;966.8;;;6.1;100.0
68873;BME280;55907;50.806;12.882;2023-12-14T06:49:49;966.9;;;6.1;100.0
68873;BME280;55907;50.806;12.882;2023-12-14T06:52:50;966.9;;;6.2;100.0
68873;BME280;55907;50.806;12.882;2023-12-14T06:55:51;967.0;;;6.2;100.0
68873;BME280;55907;50.806;12.882;2023-12-14T06:58:52;967.0;;;6.1;100.0
68873;BME280;55907;50.806;12.882;2023-12-14T07:01:52;967.1;;;6.1;100.0
68873;BME280;55907;50.806;12.882;2023-12-14T07:04:53;967.1;;;6.2;100.0
68873;BME280;55907;50.806;12.882;2023-12-14T07:07:54;967.1;;;6.1;100.0
68873;BME280;55907;50.806;12.882;2023-12-14T07:10:55;967.3;;;6.1;100.0
68873;BME280;55907;50.806;12.882;2023-12-14T07:13:55;967.3;;;6.0;100.0
68873;BME280;55907;50.806;12.882;2023-12-14T07:16:56;967.4;;;6.0;100.0
68873;BME280;55907;50.806;12.882;2023-12-14T07:19:57;967.4;;;5.9;100.0
68873;BME280;55907;50.806;12.882;2023-12-14T07:22:58;967.5;;;5.9;100.0
68873;BME280;55907;50.806;12.882;2023-12-14T07:25:59;967.6;;;6.0;100.0
68873;BME280;55907;50.806;12.882;2023-12-14T07:28:59;967.7;;;6.1;100.0
68873;BME280;55907;50.806;12.882;2023-12-14T07:32:00;967.7;;;6.1;100.0
68873;BME280;55907;50.806;12.882;2023-12-14T07:35:01;967.8;;;6.0;100.0
68873;BME280;55907;50.806;12.882;2023-12-14T07:38:02;967.8;;;6.0;100.0
68873;BME280;55907;50.806;12.882;2023-12-14T07:41:03;967.9;;;5.9;100.0
68873;BME280;55907;50.806;12.882;2023-12-14T07:44:03;967.9;;;5.8;100.0
68873;BME280;55907;50.806;12.882;2023-12-14T07:47:04;968.0;;;5.6;100.0
68873;BME280;55907;50.806;12.882;2023-12-14T07:50:05;968.0;;;5.5;100.0
68873;BME280;55907;50.806;12.882;2023-12-14T07:53:06;968.1;;;5.4;100.0
68873;BME280;55907;50.806;12.882;2023-12-14T07:56:07;968.2;;;5.4;100.0
68873;BME280;55907;50.806;12.882;2023-12-14T07:59:07;968.2;;;5.3;100.0
68873;BME280;55907;50.806;12.882;2023-12-14T08:02:08;968.3;;;5.3;100.0
68873;BME280;55907;50.806;12.882;2023-12-14T08:05:09;968.3;;;5.3;100.0
68873;BME280;55907;50.806;12.882;2023-12-14T08:08:10;968.4;;;5.3;100.0
68873;BME280;55907;50.806;12.882;2023-12-14T08:11:10;968.5;;;5.3;100.0
68873;BME280;55907;50.806;12.882;2023-12-14T08:14:11;968.5;;;5.3;100.0
68873;BME280;55907;50.806;12.882;2023-12-14T08:17:12;968.6;;;5.3;100.0
68873;BME280;55907;50.806;12.882;2023-12-14T08:20:13;968.6;;;5.3;100.0
68873;BME280;55907;50.806;12.882;2023-12-14T08:23:14;968.6;;;5.3;100.0
68873;BME280;55907;50.806;12.882;2023-12-14T08:26:15;968.6;;;5.3;100.0
68873;BME280;55907;50.806;12.882;2023-12-14T08:29:15;968.7;;;5.3;100.0
68873;BME280;55907;50.806;12.882;2023-12-14T08:32:16;968.7;;;5.4;100.0
68873;BME280;55907;50.806;12.882;2023-12-14T08:35:17;968.7;;;5.4;100.0
68873;BME280;55907;50.806;12.882;2023-12-14T08:38:18;968.8;;;5.4;100.0
68873;BME280;55907;50.806;12.882;2023-12-14T08:41:18;968.9;;;5.5;100.0
68873;BME280;55907;50.806;12.882;2023-12-14T08:44:19;968.9;;;5.5;100.0
68873;BME280;55907;50.806;12.882;2023-12-14T08:47:20;969.0;;;5.5;100.0
68873;BME280;55907;50.806;12.882;2023-12-14T08:50:21;969.0;;;5.4;100.0
68873;BME280;55907;50.806;12.882;2023-12-14T08:53:21;969.1;;;5.5;100.0
68873;BME280;55907;50.806;12.882;2023-12-14T08:56:22;969.1;;;5.5;100.0
68873;BME280;55907;50.806;12.882;2023-12-14T08:59:23;969.2;;;5.6;100.0
68873;BME280;55907;50.806;12.882;2023-12-14T09:02:24;969.2;;;5.6;100.0
68873;BME280;55907;50.806;12.882;2023-12-14T09:05:25;969.3;;;5.6;100.0
68873;BME280;55907;50.806;12.882;2023-12-14T09:08:25;969.3;;;5.6;100.0
68873;BME280;55907;50.806;12.882;2023-12-14T09:11:26;969.4;;;5.7;100.0
68873;BME280;55907;50.806;12.882;2023-12-14T09:14:27;969.5;;;5.7;100.0
68873;BME280;55907;50.806;12.882;2023-12-14T09:17:28;969.5;;;5.7;100.0
68873;BME280;55907;50.806;12.882;2023-12-14T09:20:29;969.5;;;5.5;100.0
68873;BME280;55907;50.806;12.882;2023-12-14T09:23:29;969.6;;;5.5;100.0
68873;BME280;55907;50.806;12.882;2023-12-14T09:26:30;969.7;;;5.6;100.0
68873;BME280;55907;50.806;12.882;2023-12-14T09:29:31;969.7;;;5.5;100.0
68873;BME280;55907;50.806;12.882;2023-12-14T09:32:32;969.7;;;5.5;100.0
68873;BME280;55907;50.806;12.882;2023-12-14T09:35:33;969.8;;;5.5;100.0
68873;BME280;55907;50.806;12.882;2023-12-14T09:38:33;969.9;;;5.4;100.0
68873;BME280;55907;50.806;12.882;2023-12-14T09:41:34;969.9;;;5.2;100.0
68873;BME280;55907;50.806;12.882;2023-12-14T09:44:36;969.9;;;5.1;100.0
68873;BME280;55907;50.806;12.882;2023-12-14T09:47:36;969.9;;;5.2;100.0
68873;BME280;55907;50.806;12.882;2023-12-14T09:50:38;970.0;;;5.1;100.0
68873;BME280;55907;50.806;12.882;2023-12-14T09:53:37;970.0;;;5.2;100.0
68873;BME280;55907;50.806;12.882;2023-12-14T09:56:45;970.1;;;5.3;100.0
68873;BME280;55907;50.806;12.882;2023-12-14T09:59:39;970.2;;;5.2;100.0
68873;BME280;55907;50.806;12.882;2023-12-14T10:02:40;970.2;;;5.2;100.0
68873;BME280;55907;50.806;12.882;2023-12-14T10:05:40;970.2;;;5.1;100.0
68873;BME280;55907;50.806;12.882;2023-12-14T10:11:43;970.3;;;5.2;100.0
68873;BME280;55907;50.806;12.882;2023-12-14T10:14:43;970.3;;;5.2;100.0
68873;BME280;55907;50.806;12.882;2023-12-14T10:17:44;970.3;;;5.2;100.0
68873;BME280;55907;50.806;12.882;2023-12-14T10:20:46;970.3;;;5.2;100.0
68873;BME280;55907;50.806;12.882;2023-12-14T10:23:45;970.4;;;5.1;100.0
68873;BME280;55907;50.806;12.882;2023-12-14T10:26:46;970.4;;;4.9;100.0
68873;BME280;55907;50.806;12.882;2023-12-14T10:29:47;970.4;;;4.8;100.0
68873;BME280;55907;50.806;12.882;2023-12-14T10:32:48;970.5;;;4.8;100.0
68873;BME280;55907;50.806;12.882;2023-12-14T10:35:48;970.5;;;4.8;100.0
68873;BME280;55907;50.806;12.882;2023-12-14T10:38:52;970.6;;;4.8;100.0
68873;BME280;55907;50.806;12.882;2023-12-14T10:41:52;970.6;;;4.9;100.0
68873;BME280;55907;50.806;12.882;2023-12-14T10:44:52;970.6;;;4.9;100.0
68873;BME280;55907;50.806;12.882;2023-12-14T10:47:52;970.7;;;5.0;100.0
68873;BME280;55907;50.806;12.882;2023-12-14T10:50:53;970.7;;;5.1;100.0
68873;BME280;55907;50.806;12.882;2023-12-14T10:53:53;970.7;;;5.1;100.0
68873;BME280;55907;50.806;12.882;2023-12-14T10:56:54;970.7;;;5.0;100.0
68873;BME280;55907;50.806;12.882;2023-12-14T10:59:57;970.8;;;5.0;100.0
68873;BME280;55907;50.806;12.882;2023-12-14T11:02:57;970.8;;;5.0;100.0
68873;BME280;55907;50.806;12.882;2023-12-14T11:05:56;970.9;;;4.9;100.0
68873;BME280;55907;50.806;12.882;2023-12-14T11:08:59;970.9;;;4.8;100.0
68873;BME280;55907;50.806;12.882;2023-12-14T11:11:58;970.9;;;4.9;100.0
68873;BME280;55907;50.806;12.882;2023-12-14T11:14:59;971.0;;;4.9;100.0
68873;BME280;55907;50.806;12.882;2023-12-14T11:18:19;971.0;;;4.9;100.0
68873;BME280;55907;50.806;12.882;2023-12-14T11:21:01;971.1;;;4.8;100.0
68873;BME280;55907;50.806;12.882;2023-12-14T11:24:01;971.1;;;4.8;100.0
68873;BME280;55907;50.806;12.882;2023-12-14T11:27:04;971.1;;;4.8;100.0
68873;BME280;55907;50.806;12.882;2023-12-14T11:30:03;971.2;;;4.8;100.0
68873;BME280;55907;50.806;12.882;2023-12-14T11:36:05;971.2;;;4.8;100.0
68873;BME280;55907;50.806;12.882;2023-12-14T11:39:05;971.2;;;4.8;100.0
68873;BME280;55907;50.806;12.882;2023-12-14T11:42:06;971.3;;;4.8;100.0
68873;BME280;55907;50.806;12.882;2023-12-14T11:45:07;971.4;;;4.8;100.0
68873;BME280;55907;50.806;12.882;2023-12-14T11:48:09;971.4;;;4.8;99.1
68873;BME280;55907;50.806;12.882;2023-12-14T11:51:09;971.5;;;4.8;98.6
68873;BME280;55907;50.806;12.882;2023-12-14T11:54:09;971.5;;;4.8;98.3
68873;BME280;55907;50.806;12.882;2023-12-14T12:00:11;971.5;;;4.6;98.2
68873;BME280;55907;50.806;12.882;2023-12-14T12:03:13;971.5;;;4.7;97.6
68873;BME280;55907;50.806;12.882;2023-12-14T12:06:19;971.6;;;4.7;98.0
68873;BME280;55907;50.806;12.882;2023-12-14T12:09:13;971.7;;;4.6;96.9
68873;BME280;55907;50.806;12.882;2023-12-14T12:12:13;971.7;;;4.6;97.5
68873;BME280;55907;50.806;12.882;2023-12-14T12:15:14;971.7;;;4.6;97.7
68873;BME280;55907;50.806;12.882;2023-12-14T12:21:16;971.6;;;4.4;98.2
68873;BME280;55907;50.806;12.882;2023-12-14T12:24:17;971.7;;;4.3;99.9
68873;BME280;55907;50.806;12.882;2023-12-14T12:27:17;971.7;;;4.3;100.0
68873;BME280;55907;50.806;12.882;2023-12-14T12:33:19;971.8;;;4.3;100.0
68873;BME280;55907;50.806;12.882;2023-12-14T12:36:20;971.8;;;4.3;100.0
68873;BME280;55907;50.806;12.882;2023-12-14T12:39:21;971.9;;;4.3;100.0
68873;BME280;55907;50.806;12.882;2023-12-14T12:42:21;971.9;;;4.3;100.0
68873;BME280;55907;50.806;12.882;2023-12-14T12:45:22;972.0;;;4.4;100.0
68873;BME280;55907;50.806;12.882;2023-12-14T12:48:23;972.0;;;4.4;100.0
68873;BME280;55907;50.806;12.882;2023-12-14T12:51:24;972.0;;;4.3;99.6
68873;BME280;55907;50.806;12.882;2023-12-14T12:54:25;972.1;;;4.3;100.0
68873;BME280;55907;50.806;12.882;2023-12-14T12:57:25;972.1;;;4.2;100.0
68873;BME280;55907;50.806;12.882;2023-12-14T13:00:26;972.2;;;4.2;99.3
68873;BME280;55907;50.806;12.882;2023-12-14T13:03:27;972.2;;;4.1;100.0
68873;BME280;55907;50.806;12.882;2023-12-14T13:06:28;972.3;;;4.0;99.6
68873;BME280;55907;50.806;12.882;2023-12-14T13:09:29;972.4;;;4.0;99.9
68873;BME280;55907;50.806;12.882;2023-12-14T13:12:29;972.4;;;4.1;100.0
68873;BME280;55907;50.806;12.882;2023-12-14T13:15:30;972.5;;;4.0;100.0
68873;BME280;55907;50.806;12.882;2023-12-14T13:18:31;972.5;;;3.8;100.0
68873;BME280;55907;50.806;12.882;2023-12-14T13:21:32;972.5;;;3.8;100.0
68873;BME280;55907;50.806;12.882;2023-12-14T13:24:33;972.6;;;3.8;100.0
68873;BME280;55907;50.806;12.882;2023-12-14T13:27:33;972.6;;;3.7;100.0
68873;BME280;55907;50.806;12.882;2023-12-14T13:30:34;972.7;;;3.7;100.0
68873;BME280;55907;50.806;12.882;2023-12-14T13:33:35;972.7;;;3.8;100.0
68873;BME280;55907;50.806;12.882;2023-12-14T13:36:36;972.7;;;3.7;100.0
68873;BME280;55907;50.806;12.882;2023-12-14T13:39:37;972.7;;;3.8;100.0
68873;BME280;55907;50.806;12.882;2023-12-14T13:42:38;972.7;;;3.7;100.0
68873;BME280;55907;50.806;12.882;2023-12-14T13:45:38;972.8;;;3.7;100.0
68873;BME280;55907;50.806;12.882;2023-12-14T13:48:40;972.8;;;3.7;100.0
68873;BME280;55907;50.806;12.882;2023-12-14T13:54:41;973.0;;;3.9;100.0
68873;BME280;55907;50.806;12.882;2023-12-14T13:57:42;973.0;;;3.9;100.0
68873;BME280;55907;50.806;12.882;2023-12-14T14:00:43;973.1;;;3.8;100.0
68873;BME280;55907;50.806;12.882;2023-12-14T14:03:44;973.2;;;3.8;100.0
68873;BME280;55907;50.806;12.882;2023-12-14T14:06:44;973.3;;;3.8;100.0
68873;BME280;55907;50.806;12.882;2023-12-14T14:09:45;973.3;;;3.8;100.0
68873;BME280;55907;50.806;12.882;2023-12-14T14:12:46;973.4;;;3.8;100.0
68873;BME280;55907;50.806;12.882;2023-12-14T14:15:46;973.5;;;3.8;100.0
68873;BME280;55907;50.806;12.882;2023-12-14T14:18:47;973.5;;;3.8;100.0
68873;BME280;55907;50.806;12.882;2023-12-14T14:21:48;973.6;;;3.8;100.0
68873;BME280;55907;50.806;12.882;2023-12-14T14:24:49;973.6;;;3.8;100.0
68873;BME280;55907;50.806;12.882;2023-12-14T14:27:50;973.6;;;3.8;100.0
68873;BME280;55907;50.806;12.882;2023-12-14T14:30:50;973.8;;;3.7;100.0
68873;BME280;55907;50.806;12.882;2023-12-14T14:33:51;973.8;;;3.7;100.0
68873;BME280;55907;50.806;12.882;2023-12-14T14:36:52;973.8;;;3.7;100.0
68873;BME280;55907;50.806;12.882;2023-12-14T14:39:53;974.0;;;3.7;100.0
68873;BME280;55907;50.806;12.882;2023-12-14T14:42:54;974.0;;;3.7;100.0
68873;BME280;55907;50.806;12.882;2023-12-14T14:45:54;974.1;;;3.7;100.0
68873;BME280;55907;50.806;12.882;2023-12-14T14:48:55;974.1;;;3.7;100.0
68873;BME280;55907;50.806;12.882;2023-12-14T14:51:56;974.1;;;3.8;100.0
68873;BME280;55907;50.806;12.882;2023-12-14T14:54:57;974.2;;;3.7;100.0
68873;BME280;55907;50.806;12.882;2023-12-14T14:57:58;974.2;;;3.7;100.0
68873;BME280;55907;50.806;12.882;2023-12-14T15:00:59;974.3;;;3.6;100.0
68873;BME280;55907;50.806;12.882;2023-12-14T15:03:59;974.3;;;3.7;100.0
68873;BME280;55907;50.806;12.882;2023-12-14T15:07:00;974.4;;;3.7;100.0
68873;BME280;55907;50.806;12.882;2023-12-14T15:10:01;974.4;;;3.7;100.0
68873;BME280;55907;50.806;12.882;2023-12-14T15:13:02;974.5;;;3.7;100.0
68873;BME280;55907;50.806;12.882;2023-12-14T15:16:03;974.6;;;3.6;100.0
68873;BME280;55907;50.806;12.882;2023-12-14T15:19:03;974.6;;;3.6;100.0
68873;BME280;55907;50.806;12.882;2023-12-14T15:22:04;974.6;;;3.6;100.0
68873;BME280;55907;50.806;12.882;2023-12-14T15:25:05;974.7;;;3.7;100.0
68873;BME280;55907;50.806;12.882;2023-12-14T15:28:06;974.8;;;3.7;100.0
68873;BME280;55907;50.806;12.882;2023-12-14T15:31:07;974.8;;;3.6;100.0
68873;BME280;55907;50.806;12.882;2023-12-14T15:34:07;974.8;;;3.6;100.0
68873;BME280;55907;50.806;12.882;2023-12-14T15:37:08;974.8;;;3.6;100.0
68873;BME280;55907;50.806;12.882;2023-12-14T15:40:09;974.9;;;3.6;100.0
68873;BME280;55907;50.806;12.882;2023-12-14T15:43:10;975.0;;;3.6;100.0
68873;BME280;55907;50.806;12.882;2023-12-14T15:46:11;975.0;;;3.5;100.0
68873;BME280;55907;50.806;12.882;2023-12-14T15:49:11;975.0;;;3.5;100.0
68873;BME280;55907;50.806;12.882;2023-12-14T15:52:12;975.1;;;3.6;100.0
68873;BME280;55907;50.806;12.882;2023-12-14T15:55:13;975.1;;;3.5;100.0
68873;BME280;55907;50.806;12.882;2023-12-14T15:58:14;975.1;;;3.5;100.0
68873;BME280;55907;50.806;12.882;2023-12-14T16:01:15;975.2;;;3.5;100.0
68873;BME280;55907;50.806;12.882;2023-12-14T16:07:16;975.3;;;3.5;100.0
68873;BME280;55907;50.806;12.882;2023-12-14T16:10:17;975.3;;;3.5;100.0
68873;BME280;55907;50.806;12.882;2023-12-14T16:13:18;975.4;;;3.5;100.0
68873;BME280;55907;50.806;12.882;2023-12-14T16:16:19;975.4;;;3.5;100.0
68873;BME280;55907;50.806;12.882;2023-12-14T16:19:19;975.5;;;3.5;99.8
68873;BME280;55907;50.806;12.882;2023-12-14T16:22:20;975.5;;;3.5;99.8
68873;BME280;55907;50.806;12.882;2023-12-14T16:25:21;975.6;;;3.5;99.7
68873;BME280;55907;50.806;12.882;2023-12-14T16:28:22;975.6;;;3.5;99.2
68873;BME280;55907;50.806;12.882;2023-12-14T16:31:23;975.7;;;3.5;99.1
68873;BME280;55907;50.806;12.882;2023-12-14T16:34:24;975.7;;;3.5;98.7
68873;BME280;55907;50.806;12.882;2023-12-14T16:37:24;975.8;;;3.4;99.5
68873;BME280;55907;50.806;12.882;2023-12-14T16:40:25;975.8;;;3.3;99.1
68873;BME280;55907;50.806;12.882;2023-12-14T16:43:26;975.9;;;3.2;98.6
68873;BME280;55907;50.806;12.882;2023-12-14T16:46:27;975.9;;;3.2;98.9
68873;BME280;55907;50.806;12.882;2023-12-14T16:49:28;976.0;;;3.3;99.2
68873;BME280;55907;50.806;12.882;2023-12-14T16:52:28;976.1;;;3.3;99.3
68873;BME280;55907;50.806;12.882;2023-12-14T16:55:29;976.1;;;3.3;99.5
68873;BME280;55907;50.806;12.882;2023-12-14T16:58:30;976.2;;;3.2;99.4
68873;BME280;55907;50.806;12.882;2023-12-14T17:01:31;976.3;;;3.2;99.8
68873;BME280;55907;50.806;12.882;2023-12-14T17:04:32;976.3;;;3.2;100.0
68873;BME280;55907;50.806;12.882;2023-12-14T17:07:33;976.3;;;3.2;100.0
68873;BME280;55907;50.806;12.882;2023-12-14T17:10:33;976.3;;;3.2;100.0
68873;BME280;55907;50.806;12.882;2023-12-14T17:13:34;976.3;;;3.2;100.0
68873;BME280;55907;50.806;12.882;2023-12-14T17:16:35;976.4;;;3.2;100.0
68873;BME280;55907;50.806;12.882;2023-12-14T17:19:36;976.4;;;3.2;100.0
68873;BME280;55907;50.806;12.882;2023-12-14T17:22:37;976.4;;;3.1;100.0
68873;BME280;55907;50.806;12.882;2023-12-14T17:25:38;976.5;;;3.1;100.0
68873;BME280;55907;50.806;12.882;2023-12-14T17:28:39;976.5;;;3.1;100.0
68873;BME280;55907;50.806;12.882;2023-12-14T17:34:40;976.7;;;3.1;100.0
68873;BME280;55907;50.806;12.882;2023-12-14T17:37:41;976.8;;;3.1;100.0